Time;durP1;ratioP1;P1;durP2;ratioP2;P2;SDS_P1;SDS_P2;PMS_P1;PMS_P2;Temp;Humidity;BMP_temperature;BMP_pressure;BME280_temperature;BME280_humidity;BME280_pressure;Samples;Min_cycle;Max_cycle;Signal;HPM_P1;HPM_P2
2023/01/12 00:01:29;;;;;;;11.10;1.90;;;8.40;99.90;;;;;;4954976;28;20124;-77
2023/01/12 00:03:56;;;;;;;6.05;2.00;;;8.40;99.90;;;;;;4953552;28;20421;-77
2023/01/12 00:06:23;;;;;;;14.65;2.83;;;8.50;99.90;;;;;;4954823;28;20051;-77
2023/01/12 00:08:51;;;;;;;7.43;1.95;;;8.50;99.90;;;;;;4954893;28;20221;-77
2023/01/12 00:11:19;;;;;;;7.30;2.00;;;8.50;99.90;;;;;;4954781;28;20055;-77
2023/01/12 00:13:46;;;;;;;7.95;1.60;;;8.50;99.90;;;;;;4953595;29;20062;-77
2023/01/12 00:16:34;;;;;;;15.20;2.30;;;8.60;99.90;;;;;;4953559;29;20058;-76
2023/01/12 00:19:10;;;;;;;19.05;2.95;;;8.60;99.90;;;;;;4954131;29;20090;-77
2023/01/12 00:21:45;;;;;;;13.65;2.00;;;8.60;99.90;;;;;;4954834;28;20094;-76
2023/01/12 00:24:12;;;;;;;9.35;1.88;;;8.60;99.90;;;;;;4954230;28;20055;-77
2023/01/12 00:26:38;;;;;;;12.60;1.80;;;8.60;99.90;;;;;;4954579;28;20054;-77
2023/01/12 00:29:05;;;;;;;13.93;2.92;;;8.60;99.90;;;;;;4954327;28;20047;-76
2023/01/12 00:31:32;;;;;;;11.15;2.10;;;8.60;99.90;;;;;;4954230;29;20077;-76
2023/01/12 00:33:58;;;;;;;8.23;1.95;;;8.60;99.90;;;;;;4954118;28;20513;-77
2023/01/12 00:36:25;;;;;;;13.05;2.50;;;8.50;99.90;;;;;;4954629;28;20142;-76
2023/01/12 00:38:52;;;;;;;9.07;2.00;;;8.50;99.90;;;;;;4954190;28;20066;-76
2023/01/12 00:46:50;;;;;;;12.07;2.50;;;8.30;99.90;;;;;;4951731;28;20105;-76
2023/01/12 00:49:16;;;;;;;11.85;2.55;;;8.30;99.90;;;;;;4953930;29;20054;-76
2023/01/12 00:51:43;;;;;;;10.07;1.83;;;8.20;99.90;;;;;;4954352;29;20051;-76
2023/01/12 00:54:10;;;;;;;12.82;2.38;;;8.10;99.90;;;;;;4953730;29;20059;-77
2023/01/12 00:56:38;;;;;;;10.00;2.28;;;8.10;99.90;;;;;;4953952;29;20055;-77
2023/01/12 00:59:05;;;;;;;12.27;2.25;;;8.10;99.90;;;;;;4954009;28;20130;-76
2023/01/12 01:01:33;;;;;;;15.57;2.45;;;8.10;99.90;;;;;;4953753;28;20047;-76
2023/01/12 01:04:00;;;;;;;14.50;2.35;;;8.10;99.90;;;;;;4952420;29;20139;-76
2023/01/12 01:06:26;;;;;;;11.52;2.42;;;8.10;99.90;;;;;;4953631;29;20047;-76
2023/01/12 01:08:53;;;;;;;15.55;2.53;;;8.10;99.90;;;;;;4953883;28;20051;-77
2023/01/12 01:11:20;;;;;;;8.52;2.13;;;8.10;99.90;;;;;;4953993;28;20066;-76
2023/01/12 01:13:47;;;;;;;9.57;2.60;;;8.10;99.90;;;;;;4953380;28;20526;-76
2023/01/12 01:16:16;;;;;;;17.88;3.78;;;8.00;99.90;;;;;;4953445;29;20091;-76
2023/01/12 01:18:43;;;;;;;14.07;2.28;;;8.00;99.90;;;;;;4953859;28;20055;-77
2023/01/12 01:21:11;;;;;;;8.02;1.90;;;8.10;99.90;;;;;;4953790;28;20077;-77
2023/01/12 01:23:39;;;;;;;10.68;1.95;;;8.10;99.90;;;;;;4953409;28;20548;-76
2023/01/12 01:26:12;;;;;;;11.50;2.13;;;8.00;99.90;;;;;;4953600;28;20048;-76
2023/01/12 01:28:40;;;;;;;10.00;2.15;;;8.00;99.90;;;;;;4946318;29;20047;-76
2023/01/12 01:31:13;;;;;;;7.30;1.50;;;8.10;99.90;;;;;;4951165;29;20082;-76
2023/01/12 01:33:41;;;;;;;11.48;2.22;;;8.10;99.90;;;;;;4953362;28;20114;-76
2023/01/12 01:36:08;;;;;;;12.23;2.90;;;8.10;99.90;;;;;;4953141;29;20043;-77
2023/01/12 01:38:36;;;;;;;13.68;2.40;;;8.10;99.90;;;;;;4953627;28;20047;-77
2023/01/12 01:41:04;;;;;;;15.63;2.38;;;8.20;99.90;;;;;;4952957;28;20043;-77
2023/01/12 01:43:54;;;;;;;11.05;2.10;;;8.20;99.90;;;;;;4952778;28;20501;-77
2023/01/12 01:46:34;;;;;;;12.25;1.95;;;8.30;99.90;;;;;;4953151;29;20047;-77
2023/01/12 01:49:14;;;;;;;13.45;2.22;;;8.30;99.90;;;;;;4952410;29;20048;-77
2023/01/12 01:51:42;;;;;;;11.60;2.38;;;8.30;99.90;;;;;;4951909;29;20059;-76
2023/01/12 01:54:09;;;;;;;12.98;2.45;;;8.30;99.90;;;;;;4952959;28;20139;-77
2023/01/12 01:56:36;;;;;;;11.38;2.17;;;8.40;99.90;;;;;;4953344;29;20420;-77
2023/01/12 01:59:19;;;;;;;9.88;2.42;;;8.40;99.90;;;;;;4965113;28;20596;-77
2023/01/12 02:01:46;;;;;;;19.35;2.22;;;8.40;99.90;;;;;;4950474;29;20047;-77
2023/01/12 02:04:14;;;;;;;14.10;2.47;;;8.40;99.90;;;;;;4953029;28;20047;-76
2023/01/12 02:06:42;;;;;;;11.65;2.25;;;8.50;99.90;;;;;;4953020;29;20043;-76
2023/01/12 02:09:15;;;;;;;12.80;2.30;;;8.50;99.90;;;;;;4953244;28;20122;-76
2023/01/12 02:17:56;;;;;;;10.10;2.08;;;8.50;99.90;;;;;;4952216;29;20051;-76
2023/01/12 02:20:39;;;;;;;11.55;2.25;;;8.50;99.90;;;;;;4953342;29;20066;-77
2023/01/12 02:23:21;;;;;;;8.30;1.92;;;8.50;99.90;;;;;;4933906;29;20048;-76
2023/01/12 02:26:18;;;;;;;8.77;2.10;;;8.50;99.90;;;;;;4948319;29;20047;-76
2023/01/12 02:29:22;;;;;;;13.00;2.90;;;8.50;99.90;;;;;;4953223;28;20413;-77
2023/01/12 02:32:14;;;;;;;10.35;2.22;;;8.40;99.90;;;;;;4952830;28;20058;-76
2023/01/12 02:34:54;;;;;;;8.82;2.13;;;8.40;99.90;;;;;;4952628;29;20066;-76
2023/01/12 02:37:48;;;;;;;17.67;2.80;;;8.50;99.90;;;;;;4951824;29;20066;-76
2023/01/12 02:40:46;;;;;;;13.43;2.17;;;8.50;99.90;;;;;;4952752;28;20061;-77
2023/01/12 02:43:24;;;;;;;8.43;1.98;;;8.50;99.90;;;;;;4951852;29;20047;-76
2023/01/12 02:45:54;;;;;;;10.35;2.35;;;8.50;99.90;;;;;;4964115;28;20050;-76
2023/01/12 02:48:28;;;;;;;11.70;2.03;;;8.50;99.90;;;;;;4952854;28;20066;-76
2023/01/12 02:51:09;;;;;;;16.42;3.25;;;8.50;99.90;;;;;;4952480;29;20501;-76
2023/01/12 02:53:49;;;;;;;9.82;1.75;;;8.50;99.90;;;;;;4954619;28;20089;-76
2023/01/12 02:56:32;;;;;;;10.85;1.98;;;8.50;99.90;;;;;;4956165;28;20082;-76
2023/01/12 02:59:03;;;;;;;14.77;2.03;;;8.50;99.90;;;;;;4956249;28;20051;-77
2023/01/12 03:01:32;;;;;;;10.90;2.00;;;8.50;99.90;;;;;;4956190;28;20420;-77
2023/01/12 03:04:04;;;;;;;8.60;1.98;;;8.50;99.90;;;;;;4955182;29;20098;-76
2023/01/12 03:06:54;;;;;;;10.15;1.50;;;8.50;99.90;;;;;;4954163;29;20082;-76
2023/01/12 03:09:33;;;;;;;13.43;2.22;;;8.40;99.90;;;;;;4954931;29;20134;-76
2023/01/12 03:12:05;;;;;;;10.15;1.88;;;8.50;99.90;;;;;;4954839;29;20051;-77
2023/01/12 03:14:35;;;;;;;12.02;2.00;;;8.40;99.90;;;;;;4954701;29;20505;-76
2023/01/12 03:17:06;;;;;;;13.95;3.03;;;8.40;99.90;;;;;;4953441;29;20051;-77
2023/01/12 03:19:34;;;;;;;14.60;2.28;;;8.40;99.90;;;;;;4955921;28;20063;-77
2023/01/12 03:22:09;;;;;;;9.27;1.85;;;8.40;99.90;;;;;;4955938;28;20066;-77
2023/01/12 03:24:47;;;;;;;6.57;1.70;;;8.40;99.90;;;;;;4955786;28;20047;-76
2023/01/12 03:27:23;;;;;;;14.10;2.38;;;8.40;99.90;;;;;;4955534;29;20646;-76
2023/01/12 03:29:57;;;;;;;10.27;1.70;;;8.40;99.90;;;;;;4956003;28;20051;-77
2023/01/12 03:32:24;;;;;;;9.18;2.10;;;8.50;99.90;;;;;;4955314;29;20058;-77
2023/01/12 03:34:51;;;;;;;12.10;2.20;;;8.50;99.90;;;;;;4953479;29;20059;-77
2023/01/12 03:37:18;;;;;;;11.15;2.15;;;8.50;99.90;;;;;;4955828;28;20047;-76
2023/01/12 03:40:02;;;;;;;13.50;2.38;;;8.50;99.90;;;;;;4955816;28;20122;-77
2023/01/12 03:42:46;;;;;;;12.85;2.13;;;8.50;99.90;;;;;;4955502;29;20105;-76
2023/01/12 03:45:25;;;;;;;15.82;2.65;;;8.60;99.90;;;;;;4955431;28;20051;-76
2023/01/12 03:48:05;;;;;;;8.18;1.98;;;8.60;99.90;;;;;;4955582;29;20398;-77
2023/01/12 03:50:45;;;;;;;9.43;1.75;;;8.60;99.90;;;;;;4954395;29;20668;-77
2023/01/12 03:53:14;;;;;;;13.48;2.38;;;8.60;99.90;;;;;;4954506;29;20054;-77
2023/01/12 03:55:43;;;;;;;10.65;2.20;;;8.60;99.90;;;;;;4966946;28;20059;-76
2023/01/12 03:58:10;;;;;;;13.50;2.20;;;8.70;99.90;;;;;;4955428;28;20196;-77
2023/01/12 04:00:37;;;;;;;9.07;2.08;;;8.70;99.90;;;;;;4953269;29;20051;-76
2023/01/12 04:03:13;;;;;;;11.93;2.17;;;8.70;99.90;;;;;;4954972;28;20279;-76
2023/01/12 04:05:41;;;;;;;7.32;1.52;;;8.70;99.90;;;;;;4953773;28;20090;-77
2023/01/12 04:08:08;;;;;;;13.60;2.38;;;8.70;99.90;;;;;;4955330;28;20055;-77
2023/01/12 04:10:35;;;;;;;10.43;1.73;;;8.70;99.90;;;;;;4955026;28;20420;-77
2023/01/12 04:13:02;;;;;;;10.32;2.08;;;8.70;99.90;;;;;;4954672;28;20055;-77
2023/01/12 04:15:29;;;;;;;11.15;2.05;;;8.70;99.90;;;;;;4954602;29;20051;-76
2023/01/12 04:17:56;;;;;;;10.80;1.90;;;8.80;99.90;;;;;;4954918;28;20053;-76
2023/01/12 04:20:23;;;;;;;9.75;1.73;;;8.70;99.90;;;;;;4954968;29;20413;-77
2023/01/12 04:22:49;;;;;;;16.08;2.50;;;8.70;99.90;;;;;;4954528;29;20131;-76
2023/01/12 04:25:19;;;;;;;9.98;1.85;;;8.70;99.90;;;;;;4954844;28;20058;-77
2023/01/12 04:27:52;;;;;;;7.75;1.98;;;8.70;99.90;;;;;;4954871;28;20478;-76
2023/01/12 04:30:22;;;;;;;10.50;2.00;;;8.80;99.90;;;;;;4954674;29;20043;-76
2023/01/12 04:32:49;;;;;;;13.02;2.67;;;8.80;99.90;;;;;;4954156;28;20047;-76
2023/01/12 04:35:16;;;;;;;12.95;2.20;;;8.80;99.90;;;;;;4954300;28;20082;-76
2023/01/12 04:37:44;;;;;;;12.23;2.25;;;8.70;99.90;;;;;;4954714;28;20055;-77
2023/01/12 04:40:13;;;;;;;15.32;2.30;;;8.70;99.90;;;;;;4954588;29;20424;-76
2023/01/12 04:43:00;;;;;;;10.95;2.22;;;8.70;99.90;;;;;;4954000;28;20053;-75
2023/01/12 04:45:28;;;;;;;10.88;2.13;;;8.70;99.90;;;;;;4952077;29;20051;-77
2023/01/12 04:47:54;;;;;;;11.07;1.42;;;8.70;99.90;;;;;;4954830;28;20047;-77
2023/01/12 04:50:21;;;;;;;10.73;1.85;;;8.70;99.90;;;;;;4953028;28;20054;-77
2023/01/12 04:52:48;;;;;;;12.00;2.00;;;8.70;99.90;;;;;;4950728;28;20047;-77
2023/01/12 04:55:14;;;;;;;15.32;1.80;;;8.70;99.90;;;;;;4953773;28;20055;-76
2023/01/12 04:57:41;;;;;;;9.85;1.98;;;8.80;99.90;;;;;;4953933;29;20162;-77
2023/01/12 05:00:08;;;;;;;8.50;1.60;;;8.80;99.90;;;;;;4954255;28;20054;-77
2023/01/12 05:02:35;;;;;;;12.80;2.30;;;8.80;99.90;;;;;;4953853;28;20059;-76
2023/01/12 05:05:04;;;;;;;7.90;2.08;;;8.70;99.90;;;;;;4953791;29;20047;-77
2023/01/12 05:07:30;;;;;;;9.52;1.73;;;8.70;99.90;;;;;;4953286;29;20050;-77
2023/01/12 05:12:42;;;;;;;9.18;2.00;;;8.80;99.90;;;;;;4953223;29;20157;-77
2023/01/12 05:15:09;;;;;;;11.85;2.00;;;8.80;99.90;;;;;;4953636;29;20057;-77
2023/01/12 05:17:36;;;;;;;14.05;3.05;;;8.80;99.90;;;;;;4952884;28;20055;-76
2023/01/12 05:20:03;;;;;;;13.52;2.10;;;8.80;99.90;;;;;;4951704;29;20352;-77
2023/01/12 05:22:30;;;;;;;14.00;2.38;;;8.80;99.90;;;;;;4954051;28;20398;-77
2023/01/12 05:24:57;;;;;;;7.45;2.03;;;8.80;99.90;;;;;;4953593;28;20050;-77
2023/01/12 05:27:23;;;;;;;12.35;2.28;;;8.80;99.90;;;;;;4952518;28;20043;-77
2023/01/12 05:29:51;;;;;;;11.52;1.80;;;8.80;99.90;;;;;;4953465;28;20528;-77
2023/01/12 05:32:18;;;;;;;11.13;2.08;;;8.80;99.90;;;;;;4950975;29;20075;-77
2023/01/12 05:34:45;;;;;;;15.90;2.03;;;8.70;99.90;;;;;;4951919;29;20055;-77
2023/01/12 05:37:11;;;;;;;14.52;2.50;;;8.70;99.90;;;;;;4951321;28;20047;-77
2023/01/12 05:39:38;;;;;;;10.57;1.80;;;8.70;99.90;;;;;;4953231;28;20078;-77
2023/01/12 05:44:49;;;;;;;10.60;2.05;;;8.60;99.90;;;;;;4950646;29;20058;-77
2023/01/12 05:47:16;;;;;;;11.93;2.10;;;8.60;99.90;;;;;;4950142;28;20058;-76
2023/01/12 05:49:43;;;;;;;7.60;1.77;;;8.60;99.90;;;;;;4954077;29;20471;-76
2023/01/12 05:52:09;;;;;;;8.48;1.60;;;8.60;99.90;;;;;;4948423;28;20054;-76
2023/01/12 05:54:36;;;;;;;8.68;2.13;;;8.60;99.90;;;;;;4951750;28;20073;-76
2023/01/12 05:57:03;;;;;;;11.48;2.17;;;8.50;99.90;;;;;;4952139;28;20054;-77
2023/01/12 05:59:29;;;;;;;9.57;1.48;;;8.50;99.90;;;;;;4951087;28;20055;-76
2023/01/12 06:01:56;;;;;;;9.18;2.35;;;8.50;99.90;;;;;;4952072;28;20421;-76
2023/01/12 06:04:24;;;;;;;5.40;1.50;;;8.40;99.90;;;;;;4952647;29;20486;-76
2023/01/12 06:06:52;;;;;;;9.77;1.88;;;8.50;99.90;;;;;;4949202;28;20043;-77
2023/01/12 06:09:18;;;;;;;11.52;2.10;;;8.50;99.90;;;;;;4950351;28;20077;-76
2023/01/12 06:14:31;;;;;;;6.60;1.88;;;8.50;99.90;;;;;;4948756;28;20177;-76
2023/01/12 06:16:58;;;;;;;5.90;1.23;;;8.50;99.90;;;;;;4952492;28;20405;-76
2023/01/12 06:19:24;;;;;;;7.75;1.63;;;8.50;99.90;;;;;;4951281;28;20086;-77
2023/01/12 06:21:53;;;;;;;13.73;2.05;;;8.50;99.90;;;;;;4951437;28;20058;-77
2023/01/12 06:24:20;;;;;;;9.13;1.95;;;8.50;99.90;;;;;;4952116;28;20075;-76
2023/01/12 06:26:47;;;;;;;5.65;1.25;;;8.50;99.90;;;;;;4950922;28;20047;-76
2023/01/12 06:29:13;;;;;;;5.03;1.30;;;8.60;99.90;;;;;;4954696;28;20051;-75
2023/01/12 06:31:40;;;;;;;8.30;2.58;;;8.60;99.90;;;;;;4955300;28;20473;-77
2023/01/12 06:34:07;;;;;;;8.50;1.80;;;8.50;99.90;;;;;;4954381;29;20057;-76
2023/01/12 06:36:34;;;;;;;12.20;1.98;;;8.60;99.90;;;;;;4956352;29;20051;-77
2023/01/12 06:39:02;;;;;;;7.82;1.77;;;8.50;99.90;;;;;;4956369;28;20138;-76
2023/01/12 06:44:31;;;;;;;6.90;1.40;;;8.50;99.90;;;;;;4914842;29;20059;-76
2023/01/12 06:46:57;;;;;;;5.07;1.10;;;8.50;99.90;;;;;;4947634;28;20134;-76
2023/01/12 06:49:24;;;;;;;5.88;1.38;;;8.50;99.90;;;;;;4956454;29;20051;-76
2023/01/12 06:51:51;;;;;;;10.38;1.45;;;8.40;99.90;;;;;;4954224;29;20648;-77
2023/01/12 06:54:17;;;;;;;2.95;1.00;;;8.40;99.90;;;;;;4956266;28;20512;-76
2023/01/12 06:56:44;;;;;;;5.00;1.10;;;8.50;99.90;;;;;;4956012;28;20129;-76
2023/01/12 06:59:11;;;;;;;6.80;1.17;;;8.50;99.90;;;;;;4956176;28;20058;-76
2023/01/12 07:01:39;;;;;;;6.57;1.30;;;8.40;99.90;;;;;;4956299;28;20417;-76
2023/01/12 07:04:06;;;;;;;7.03;1.50;;;8.50;99.90;;;;;;4955683;28;20461;-76
2023/01/12 07:06:33;;;;;;;6.35;1.40;;;8.50;99.90;;;;;;4955989;28;20047;-77
2023/01/12 07:09:00;;;;;;;5.22;1.27;;;8.50;99.90;;;;;;4955840;28;20053;-76
2023/01/12 07:11:27;;;;;;;7.28;1.42;;;8.50;99.90;;;;;;4955995;28;20074;-77
2023/01/12 07:13:54;;;;;;;11.43;2.58;;;8.50;99.90;;;;;;4955518;28;20059;-76
2023/01/12 07:16:21;;;;;;;4.00;1.08;;;8.50;99.90;;;;;;4956112;28;20057;-77
2023/01/12 07:18:48;;;;;;;6.20;1.17;;;8.50;99.90;;;;;;4955878;28;20051;-76
2023/01/12 07:21:18;;;;;;;6.07;1.17;;;8.50;99.90;;;;;;4954550;29;20417;-76
2023/01/12 07:23:45;;;;;;;7.05;1.20;;;8.50;99.90;;;;;;4954067;29;20051;-76
2023/01/12 07:26:12;;;;;;;6.88;1.30;;;8.50;99.90;;;;;;4955727;29;20564;-76
2023/01/12 07:28:39;;;;;;;5.55;1.42;;;8.50;99.90;;;;;;4955545;28;20043;-77
2023/01/12 07:31:06;;;;;;;2.78;1.00;;;8.50;99.90;;;;;;4955587;28;20122;-76
2023/01/12 07:33:33;;;;;;;6.95;1.40;;;8.50;99.90;;;;;;4955214;29;20118;-76
2023/01/12 07:36:01;;;;;;;13.02;1.90;;;8.50;99.90;;;;;;4954527;29;20098;-76
2023/01/12 07:38:29;;;;;;;6.72;1.20;;;8.60;99.90;;;;;;4951911;28;20058;-76
2023/01/12 07:41:00;;;;;;;7.60;1.15;;;8.60;99.90;;;;;;4954603;28;20080;-76
2023/01/12 07:43:27;;;;;;;8.10;1.40;;;8.60;99.90;;;;;;4954821;28;20062;-76
2023/01/12 07:45:56;;;;;;;6.00;1.10;;;8.70;99.90;;;;;;4955574;28;20066;-76
2023/01/12 07:48:25;;;;;;;5.30;1.35;;;8.80;99.90;;;;;;4953455;29;20047;-76
2023/01/12 07:50:52;;;;;;;4.60;1.33;;;8.80;99.90;;;;;;4955358;28;20047;-76
2023/01/12 07:53:19;;;;;;;5.22;1.70;;;8.80;99.90;;;;;;4955140;28;20058;-76
2023/01/12 07:55:46;;;;;;;7.95;1.25;;;8.80;99.90;;;;;;4953909;29;20109;-76
2023/01/12 07:58:13;;;;;;;7.03;1.52;;;8.80;99.90;;;;;;4955261;28;20055;-76
2023/01/12 08:00:39;;;;;;;5.57;1.05;;;8.80;99.90;;;;;;4955274;28;20101;-76
2023/01/12 08:03:09;;;;;;;6.80;1.70;;;8.90;99.90;;;;;;4954695;29;20051;-76
2023/01/12 08:05:37;;;;;;;5.53;1.98;;;8.90;99.90;;;;;;4955326;28;20082;-77
2023/01/12 08:08:05;;;;;;;7.25;1.27;;;8.90;99.90;;;;;;4954891;28;20047;-76
2023/01/12 08:10:32;;;;;;;5.88;1.30;;;8.90;99.90;;;;;;4954757;29;20134;-76
2023/01/12 08:12:59;;;;;;;7.13;1.33;;;8.90;99.90;;;;;;4952563;29;20055;-76
2023/01/12 08:15:30;;;;;;;8.48;1.33;;;8.90;99.90;;;;;;4954938;28;20059;-76
2023/01/12 08:18:04;;;;;;;8.23;1.65;;;9.00;99.90;;;;;;4953009;29;20406;-77
2023/01/12 08:20:34;;;;;;;5.78;1.20;;;9.00;99.90;;;;;;4952004;28;20059;-76
2023/01/12 08:23:15;;;;;;;4.82;1.27;;;9.00;99.90;;;;;;4951212;29;20098;-76
2023/01/12 08:25:45;;;;;;;9.13;1.55;;;9.10;99.90;;;;;;4954413;28;20519;-76
2023/01/12 08:28:18;;;;;;;6.65;1.02;;;9.10;99.90;;;;;;4954400;28;20047;-76
2023/01/12 08:30:47;;;;;;;6.63;1.10;;;9.20;99.90;;;;;;4954386;28;20055;-76
2023/01/12 08:33:14;;;;;;;4.82;0.98;;;9.20;99.90;;;;;;4953559;29;20086;-77
2023/01/12 08:35:42;;;;;;;5.50;0.90;;;9.30;99.90;;;;;;4951782;29;20079;-76
2023/01/12 08:38:09;;;;;;;10.38;1.35;;;9.30;99.90;;;;;;4954507;28;20051;-77
2023/01/12 08:46:08;;;;;;;5.95;1.20;;;9.40;99.90;;;;;;4953286;29;20054;-76
2023/01/12 08:48:35;;;;;;;4.38;1.08;;;9.40;99.90;;;;;;4951488;29;20113;-76
2023/01/12 08:51:03;;;;;;;5.15;1.55;;;9.40;99.90;;;;;;4953997;28;20043;-77
2023/01/12 08:53:30;;;;;;;4.50;1.35;;;9.50;99.90;;;;;;4953979;28;20051;-76
2023/01/12 08:55:57;;;;;;;4.32;1.05;;;9.50;99.90;;;;;;4954254;28;20134;-76
2023/01/12 08:58:24;;;;;;;3.40;0.95;;;9.50;99.90;;;;;;4953882;29;20051;-76
2023/01/12 09:00:51;;;;;;;5.20;1.30;;;9.60;99.90;;;;;;4953999;29;20062;-77
2023/01/12 09:03:18;;;;;;;8.48;1.35;;;9.60;99.90;;;;;;4953411;29;20277;-77
2023/01/12 09:05:44;;;;;;;4.30;1.00;;;9.60;99.90;;;;;;4952067;29;20055;-76
2023/01/12 09:08:11;;;;;;;6.72;1.20;;;9.60;99.90;;;;;;4953728;28;20580;-76
2023/01/12 09:10:38;;;;;;;3.72;0.93;;;9.60;99.90;;;;;;4952797;29;20074;-77
2023/01/12 09:13:05;;;;;;;6.38;1.20;;;9.60;99.90;;;;;;4953519;29;20044;-76
2023/01/12 09:15:31;;;;;;;5.57;1.42;;;9.60;99.90;;;;;;4953635;28;20051;-76
2023/01/12 09:17:58;;;;;;;2.78;0.98;;;9.70;99.90;;;;;;4953827;28;20057;-76
2023/01/12 09:20:25;;;;;;;6.38;1.88;;;9.70;99.90;;;;;;4953753;28;20078;-76
2023/01/12 09:22:52;;;;;;;3.08;0.70;;;9.70;99.90;;;;;;4953411;28;20043;-77
2023/01/12 09:25:18;;;;;;;1.20;0.80;;;9.70;99.90;;;;;;4953533;28;20134;-76
2023/01/12 09:27:45;;;;;;;2.10;0.70;;;9.70;99.90;;;;;;4947044;29;20416;-76
2023/01/12 09:30:12;;;;;;;3.58;1.08;;;9.80;99.90;;;;;;4953397;28;20055;-76
2023/01/12 09:32:38;;;;;;;6.55;1.30;;;9.80;99.90;;;;;;4953195;28;20449;-76
2023/01/12 09:35:05;;;;;;;5.03;1.00;;;9.80;99.90;;;;;;4952988;28;20055;-76
2023/01/12 09:37:32;;;;;;;6.50;1.05;;;9.80;99.90;;;;;;4953346;28;20620;-76
2023/01/12 09:39:59;;;;;;;3.78;1.13;;;9.80;99.90;;;;;;4953487;28;20449;-76
2023/01/12 09:48:11;;;;;;;5.90;1.00;;;9.90;99.90;;;;;;4953457;29;20054;-77
2023/01/12 09:50:49;;;;;;;2.80;0.93;;;9.90;99.90;;;;;;4953131;28;20051;-77
2023/01/12 09:53:23;;;;;;;4.05;0.90;;;10.00;99.90;;;;;;4952800;28;20043;-76
2023/01/12 09:56:11;;;;;;;6.25;1.05;;;10.00;99.90;;;;;;4953062;28;20054;-77
2023/01/12 09:59:04;;;;;;;5.88;0.82;;;10.10;99.90;;;;;;4953009;29;20059;-77
2023/01/12 10:01:31;;;;;;;6.90;2.53;;;10.10;99.90;;;;;;4939963;28;20052;-77
2023/01/12 10:04:00;;;;;;;4.28;1.25;;;10.10;99.90;;;;;;4958552;28;20050;-77
2023/01/12 10:06:27;;;;;;;7.13;1.00;;;10.10;99.90;;;;;;4959221;28;20051;-76
2023/01/12 10:08:57;;;;;;;6.93;1.20;;;10.20;99.90;;;;;;4955473;29;20134;-77
2023/01/12 10:11:27;;;;;;;6.37;1.00;;;10.10;99.90;;;;;;4958638;28;20522;-77
2023/01/12 10:14:05;;;;;;;5.35;1.10;;;10.10;99.90;;;;;;4958287;28;20291;-77
2023/01/12 10:16:58;;;;;;;7.10;1.70;;;10.10;99.90;;;;;;4956501;29;20055;-76
2023/01/12 10:19:50;;;;;;;6.22;1.08;;;10.10;99.90;;;;;;4948856;28;20055;-77
2023/01/12 10:22:36;;;;;;;6.85;1.20;;;10.10;99.90;;;;;;4955579;28;20477;-77
2023/01/12 10:25:29;;;;;;;2.80;0.90;;;10.20;99.90;;;;;;4957609;28;20043;-76
2023/01/12 10:27:58;;;;;;;4.45;1.00;;;10.20;99.90;;;;;;4956058;29;20047;-77
2023/01/12 10:30:35;;;;;;;7.50;1.15;;;10.30;99.90;;;;;;4958348;28;20519;-77
2023/01/12 10:33:09;;;;;;;4.03;1.33;;;10.30;99.90;;;;;;4958238;28;20055;-77
2023/01/12 10:36:03;;;;;;;6.13;1.25;;;10.30;99.90;;;;;;4958751;28;20062;-77
2023/01/12 10:38:56;;;;;;;8.13;1.23;;;10.30;99.90;;;;;;4958761;28;20142;-77
2023/01/12 10:41:28;;;;;;;6.78;1.25;;;10.30;99.90;;;;;;4958499;28;20143;-77
2023/01/12 10:43:57;;;;;;;5.85;1.45;;;10.30;99.90;;;;;;4955971;28;20047;-76
2023/01/12 10:46:27;;;;;;;7.38;1.38;;;10.30;99.90;;;;;;4958195;28;20051;-77
2023/01/12 10:49:14;;;;;;;6.37;1.00;;;10.40;99.90;;;;;;4957176;29;20146;-77
2023/01/12 10:51:51;;;;;;;7.57;1.38;;;10.40;99.90;;;;;;4956357;29;20294;-76
2023/01/12 10:54:21;;;;;;;5.93;1.20;;;10.40;99.90;;;;;;4957598;29;20143;-77
2023/01/12 10:56:56;;;;;;;4.80;0.90;;;10.40;99.90;;;;;;4958418;28;20047;-77
2023/01/12 10:59:28;;;;;;;3.92;0.82;;;10.40;99.90;;;;;;4958451;28;20295;-76
2023/01/12 11:02:07;;;;;;;9.23;1.67;;;10.40;99.90;;;;;;4957861;29;20078;-76
2023/01/12 11:04:43;;;;;;;5.07;1.27;;;10.40;99.90;;;;;;4957913;28;20143;-77
2023/01/12 11:07:21;;;;;;;8.30;1.80;;;10.40;99.90;;;;;;4920570;28;1059379;-76
2023/01/12 11:09:47;;;;;;;3.63;1.23;;;10.40;99.90;;;;;;4958836;29;20181;-77
2023/01/12 11:12:22;;;;;;;3.83;0.75;;;10.40;99.90;;;;;;4954613;29;20054;-77
2023/01/12 11:15:00;;;;;;;3.03;1.13;;;10.40;99.90;;;;;;4956451;28;20417;-77
2023/01/12 11:17:37;;;;;;;6.85;1.10;;;10.40;99.90;;;;;;4954896;29;20055;-77
2023/01/12 11:20:31;;;;;;;4.55;1.02;;;10.40;99.90;;;;;;4954160;29;20047;-76
2023/01/12 11:23:01;;;;;;;3.00;1.00;;;10.40;99.90;;;;;;4954747;29;20066;-77
2023/01/12 11:25:34;;;;;;;1.77;0.70;;;10.40;99.90;;;;;;4955765;28;20134;-77
2023/01/12 11:28:22;;;;;;;3.53;0.70;;;10.50;99.90;;;;;;4956004;28;20146;-77
2023/01/12 11:30:51;;;;;;;3.05;0.77;;;10.50;99.90;;;;;;4953996;29;20058;-77
2023/01/12 11:33:31;;;;;;;3.42;0.95;;;10.50;99.90;;;;;;4955690;28;20433;-77
2023/01/12 11:36:03;;;;;;;6.13;0.90;;;10.60;99.90;;;;;;4952789;29;20051;-77
2023/01/12 11:38:35;;;;;;;1.88;0.57;;;10.50;99.90;;;;;;4955734;28;20047;-77
2023/01/12 11:41:09;;;;;;;2.33;0.70;;;10.50;99.90;;;;;;4955746;28;20043;-77
2023/01/12 11:43:50;;;;;;;4.38;1.30;;;10.60;99.90;;;;;;4955053;28;20058;-77
2023/01/12 11:46:42;;;;;;;3.38;0.88;;;10.50;99.90;;;;;;4955234;28;20098;-77
2023/01/12 11:49:09;;;;;;;3.53;0.90;;;10.50;99.90;;;;;;4955306;29;20134;-77
2023/01/12 11:51:36;;;;;;;3.13;0.93;;;10.50;99.90;;;;;;4955363;28;20048;-77
2023/01/12 11:54:06;;;;;;;1.33;0.60;;;10.50;99.90;;;;;;4955084;28;20078;-77
2023/01/12 11:56:47;;;;;;;4.70;0.93;;;10.50;99.90;;;;;;4955097;28;20052;-77
2023/01/12 11:59:41;;;;;;;1.85;0.80;;;10.50;99.90;;;;;;4952632;29;20051;-77
2023/01/12 12:02:35;;;;;;;3.90;0.73;;;10.50;99.90;;;;;;4955361;28;20092;-77
2023/01/12 12:05:09;;;;;;;4.80;0.77;;;10.50;99.90;;;;;;4953327;29;20083;-77
2023/01/12 12:07:44;;;;;;;2.80;0.68;;;10.50;99.90;;;;;;4953560;29;20143;-77
2023/01/12 12:10:31;;;;;;;3.00;0.60;;;10.60;99.90;;;;;;4953606;29;20051;-77
2023/01/12 12:13:09;;;;;;;3.08;1.20;;;10.60;99.90;;;;;;4952944;29;20173;-77
2023/01/12 12:15:57;;;;;;;2.40;0.90;;;10.60;99.90;;;;;;4955405;29;20061;-77
2023/01/12 12:18:37;;;;;;;3.50;0.80;;;10.60;99.90;;;;;;4955109;28;20106;-77
2023/01/12 12:21:36;;;;;;;2.70;0.90;;;10.60;99.90;;;;;;4954030;28;20058;-77
2023/01/12 12:24:28;;;;;;;3.28;0.70;;;10.60;99.90;;;;;;4953939;29;20051;-77
2023/01/12 12:27:13;;;;;;;2.50;1.02;;;10.60;99.90;;;;;;4954151;28;20416;-77
2023/01/12 12:30:01;;;;;;;5.22;0.93;;;10.60;99.90;;;;;;4953630;29;20505;-77
2023/01/12 12:32:39;;;;;;;4.55;1.08;;;10.60;99.90;;;;;;4954995;28;20054;-77
2023/01/12 12:35:37;;;;;;;5.43;1.00;;;10.60;99.90;;;;;;4953848;29;20511;-77
2023/01/12 12:38:50;;;;;;;5.13;0.90;;;10.60;99.90;;;;;;4955002;28;20055;-77
2023/01/12 12:47:19;;;;;;;4.95;0.90;;;10.60;99.90;;;;;;4974414;29;19948;-76
2023/01/12 12:49:46;;;;;;;5.68;1.30;;;10.60;99.90;;;;;;4976765;28;20035;-76
2023/01/12 12:52:13;;;;;;;3.50;0.98;;;10.60;99.90;;;;;;4979952;28;20106;-76
2023/01/12 12:54:40;;;;;;;4.88;0.82;;;10.70;99.90;;;;;;4977703;28;20066;-76
2023/01/12 12:57:07;;;;;;;4.78;1.02;;;10.70;99.90;;;;;;4969769;28;20044;-76
2023/01/12 12:59:37;;;;;;;3.53;0.80;;;10.70;99.90;;;;;;4954750;28;20597;-76
2023/01/12 13:02:24;;;;;;;3.95;0.88;;;10.80;99.90;;;;;;4954407;29;20485;-76
2023/01/12 13:04:52;;;;;;;2.55;0.68;;;10.90;99.90;;;;;;4953060;29;20047;-76
2023/01/12 13:07:20;;;;;;;4.97;0.93;;;10.90;99.90;;;;;;4953762;28;20054;-77
2023/01/12 13:09:48;;;;;;;5.53;0.80;;;10.90;99.90;;;;;;4954147;28;20081;-77
2023/01/12 13:12:28;;;;;;;4.63;1.27;;;10.90;99.90;;;;;;4953729;28;20134;-77
2023/01/12 13:15:16;;;;;;;6.63;1.20;;;10.90;99.90;;;;;;4951975;29;20055;-76
2023/01/12 13:17:45;;;;;;;7.20;1.30;;;10.90;99.90;;;;;;4952328;29;20425;-76
2023/01/12 13:20:12;;;;;;;3.75;0.90;;;10.90;99.90;;;;;;4953861;28;20146;-77
2023/01/12 13:22:50;;;;;;;5.65;1.10;;;10.90;99.90;;;;;;4952084;29;20104;-76
2023/01/12 13:25:22;;;;;;;7.68;0.93;;;10.90;99.90;;;;;;4953765;28;20070;-77
2023/01/12 13:27:56;;;;;;;6.50;1.83;;;10.90;99.90;;;;;;4953904;28;20416;-77
2023/01/12 13:30:29;;;;;;;2.63;0.88;;;10.90;99.90;;;;;;4955347;29;20098;-75
2023/01/12 13:33:01;;;;;;;4.32;0.95;;;10.90;99.90;;;;;;4953495;28;20138;-75
2023/01/12 13:35:47;;;;;;;8.10;1.13;;;10.90;99.90;;;;;;4953121;28;20137;-75
2023/01/12 13:38:32;;;;;;;6.63;1.20;;;10.90;99.90;;;;;;4951623;28;20421;-75
2023/01/12 13:43:13;;;;;;;5.35;1.20;;;10.90;99.90;;;;;;4940610;29;20134;-75
2023/01/12 13:44:04;;;;;;;6.43;1.20;;;10.90;99.90;;;;;;4952727;29;20505;-75
2023/01/12 13:46:39;;;;;;;4.70;1.45;;;10.90;99.90;;;;;;4953451;28;19935;-75
2023/01/12 13:49:26;;;;;;;6.07;1.02;;;10.90;99.90;;;;;;4951735;29;20048;-75
2023/01/12 13:52:04;;;;;;;3.90;1.08;;;10.90;99.90;;;;;;4951407;29;20524;-75
2023/01/12 13:54:33;;;;;;;4.30;0.98;;;10.90;99.90;;;;;;4952586;29;20055;-75
2023/01/12 13:57:04;;;;;;;6.72;1.83;;;10.90;99.90;;;;;;4953294;28;20051;-75